Meath Environmental Platform

Observations

Time Sensor AQI SAQ Temp °C Hum % Pres Pa CO μg/m³ H₂S μg/m³ NO μg/m³ NO₂ μg/m³ O₃ μg/m³ SO₂ μg/m³ CO₂e PPM VOC PPM PM1 μg/m³ PM2.5 μg/m³ PM4 μg/m³ PM10 μg/m³ TPS µm
Tuesday 11 August 2026
01:14 Trim Patrick St 2 13.2 71 38,445 0.24 5.72 3.67 34.24 11.38 0 3.71 7.96 8.76
01:14 Trim Market St 2 14.8 63 57,763 0.28 0 1.67 23.11 38.7 0 1.43 2.88 4.19
01:13 Trim Patrick St 2 13.2 71 38,439 0.22 5.82 3.53 33.33 12.5 0 4.57 7.97 8.77
01:13 Trim Market St 2 14.8 63 57,767 0.26 0 1.61 14.22 43.43 0 1.43 4.37 6.19
01:12 Trim Patrick St 2 13.2 71 38,432 0.24 6.03 3.51 34.67 11.49 0 3.71 7.26 7.99
01:12 Trim Market St 2 14.9 63 57,770 0.25 0 1.68 14.15 38 0 2.85 4.37 6.19
01:11 Trim Patrick St 2 13.2 71 38,423 0.23 5.82 3.66 33.77 11.83 0 2.86 6.54 7.19
01:11 Trim Market St 2 14.8 63 57,772 0.26 0 1.62 13.03 37.18 0 1.43 3.38 5.53
01:10 Trim Patrick St 2 13.3 71 38,410 0.21 5.83 3.62 34.59 12.25 0 3.71 7.27 7.99
01:10 Trim Market St 2 14.9 63 57,774 0.26 0 1.61 12.93 36.71 0 2.14 3.38 5.52
01:09 Trim Patrick St 2 13.3 71 38,393 0.24 5.96 3.63 33.68 13.7 0 3.71 7.99 8.79
01:09 Trim Market St 2 14.9 63 57,779 0.27 0 2.1 15.57 35.82 0 1.43 3.88 6.19
01:08 Trim Patrick St 2 13.3 71 38,370 0.22 6.19 3.63 35.93 11.74 0 4.57 7.99 8.79
01:08 Trim Market St 2 14.9 63 57,780 0.3 0 2.56 13.78 45.12 0 2.14 4.38 6.19
01:07 Trim Patrick St 2 13.3 70 38,341 0.22 6.14 3.63 35.02 12.62 0 2.86 6.56 7.22
01:06 Trim Patrick St 2 13.3 70 38,301 0.23 6.11 3.63 34.56 12.97 0 3.71 7.29 8.02
01:05 Trim Patrick St 2 13.4 70 38,248 0.22 5.88 3.6 34.92 12.35 0 2.86 7.29 8.02
01:04 Trim Market St 2 14.9 63 57,787 0.3 0 2.68 15.54 35.8 0 1.43 2.9 4.18
01:04 Trim Patrick St 2 13.4 70 38,176 0.21 5.93 3.6 34.91 12.04 0 3.71 8.74 9.62
01:03 Trim Market St 2 14.9 63 57,791 0.26 0 2.71 16.35 35.76 0 2.14 3.89 5.52